Nearby METAR Reports

 

KDAA - Fort Belvoir/Dav, Virginia, USA
Distance from station: SSE 11mi, 18km
Updated: Thu, 19-Oct-2017 7:56am EDT
Clear
Clear
 Wind from calm
Wind: Calm
Temperature: 39°F , 4°C
Dew Point: 39°F , 4°C
Humidity: 100%
Barometer: 30.27 inHg , 1025.1 hPa
Clouds: Clear
Visibility: 10 miles , 16 km
2017/10/19 11:56 KDAA 191156Z AUTO 00000KT 10SM CLR 04/04 A3027 RMK AO2 SLP254 70005 T00440038 10067 20044 58001 $
KIAD - Wash Dc/Dulles, Virginia, USA
Distance from station: WNW 11mi, 18km
Updated: Thu, 19-Oct-2017 7:52am EDT
Partly cloudy
Partly cloudy
 Wind from calm
Wind: Calm
Temperature: 39°F , 4°C
Dew Point: 39°F , 4°C
Humidity: 100%
Barometer: 30.27 inHg , 1025.1 hPa
Clouds: Partly cloudy
Visibility: 10 miles , 16 km
Cloud details: Partly cloudy 25000 ft
2017/10/19 11:52 KIAD 191152Z 00000KT 10SM SCT250 04/04 A3027 RMK AO2 SLP251 T00440044 10083 20028 55001
 
KDCA - Washington/Natl, Washington D.c., USA
Distance from station: E 12mi, 20km
Updated: Thu, 19-Oct-2017 7:52am EDT
Few Clouds
Few Clouds
 Wind from SSW
Wind: SSW 3 mph , 6 km/h
Temperature: 50°F , 10°C
Dew Point: 48°F , 9°C
Humidity: 94%
Barometer: 30.28 inHg , 1025.4 hPa
Clouds: Few Clouds
Visibility: 10 miles , 16 km
Cloud details: Few Clouds 23000 ft
2017/10/19 11:52 KDCA 191152Z 21003KT 10SM FEW230 10/09 A3028 RMK AO2 SLP253 T01000089 10117 20094 58001
KHEF - Manassas Muni, Virginia, USA
Distance from station: SW 17mi, 27km
Updated: Thu, 19-Oct-2017 7:56am EDT
Clear
Clear
 Wind from calm
Wind: Calm
Temperature: 37°F , 3°C
Dew Point: 36°F , 2°C
Humidity: 93%
Barometer: 30.28 inHg , 1025.4 hPa
Clouds: Clear
Visibility: 10 miles , 16 km
2017/10/19 11:56 KHEF 191156Z 00000KT 10SM CLR 03/02 A3028 RMK AO2 SLP267 6//// 7//// T00280022 10050 20022 52001 PNO $
 
KCGS - College Park, Maryland, USA
Distance from station: ENE 20mi, 33km
Updated: Thu, 19-Oct-2017 8:25am EDT
Clear
Clear
 Wind from calm
Wind: Calm
Temperature: 43°F , 6°C
Dew Point: 41°F , 5°C
Humidity: 93%
Barometer: 30.28 inHg , 1025.4 hPa
Clouds: Clear
Visibility: 10 miles , 16 km
2017/10/19 12:25 KCGS 191225Z AUTO 00000KT 10SM CLR 06/05 A3028 RMK AO1 T00580053
KADW - Andrews Afb, Maryland, USA
Distance from station: E 21mi, 34km
Updated: Thu, 19-Oct-2017 7:58am EDT
Clear
Clear
 Wind from calm
Wind: Calm
Temperature: 45°F , 7°C
Dew Point: 45°F , 7°C
Humidity: 100%
Barometer: 30.26 inHg , 1024.7 hPa
Clouds: Clear
Visibility: 10 miles , 16 km
2017/10/19 11:58 KADW 191158Z 00000KT 10SM CLR 07/07 A3026 RMK AO2A SLP255 T00730067 10093 20049 58002
 
KGAI - Gaithersburg, Maryland, USA
Distance from station: NNE 22mi, 35km
Updated: Thu, 19-Oct-2017 7:56am EDT
Clear
Clear
 Wind from calm
Wind: Calm
Temperature: 41°F , 5°C
Dew Point: 39°F , 4°C
Humidity: 93%
Barometer: 30.27 inHg , 1025.1 hPa
Clouds: Clear
Visibility: 10 miles , 16 km
2017/10/19 11:56 KGAI 191156Z AUTO 00000KT 10SM CLR 05/04 A3027 RMK AO2 SLP284 T00500044 10094 20050 58001
KJYO - Leesburg/Godfrey, Virginia, USA
Distance from station: NW 22mi, 35km
Updated: Thu, 19-Oct-2017 8:35am EDT
Clear
Clear
 Wind from calm
Wind: Calm
Temperature: 45°F , 7°C
Dew Point: 45°F , 7°C
Humidity: 100%
Barometer: 30.28 inHg , 1025.4 hPa
Clouds: Clear
Visibility: 10 miles , 16 km
2017/10/19 12:35 KJYO 191235Z AUTO 00000KT 10SM CLR 07/07 A3028 RMK AO2
 
KNYG - Quantico Mcaf, Virginia, USA
Distance from station: S 25mi, 40km
Updated: Thu, 19-Oct-2017 8:01am EDT
Few Clouds
Few Clouds
 Wind from WNW
Wind: WNW 7 mph , 11 km/h
Temperature: 46°F , 8°C
Wind Chill: 42°F , 6°C
Dew Point: 46°F , 8°C
Humidity: 100%
Barometer: 30.29 inHg , 1025.7 hPa
Clouds: Few Clouds
Visibility: 10 miles , 16 km
Cloud details: Few Clouds 20000 ft
Few Clouds 25000 ft
2017/10/19 12:01 KNYG 191201Z 30006KT 10SM FEW200 FEW250 08/08 A3029 RMK AO2 T00780078
KFME - Fort Meade, Maryland, USA
Distance from station: ENE 31mi, 49km
Updated: Thu, 19-Oct-2017 8:24am EDT
Clear
Clear
 Wind from calm
Wind: Calm
Temperature: 37°F , 3°C
Dew Point: 36°F , 2°C
Humidity: 93%
Barometer: 30.30 inHg , 1026.1 hPa
Clouds: Clear
Visibility: 10 miles , 16 km
2017/10/19 12:24 KFME 191224Z AUTO 00000KT 10SM CLR 03/02 A3030 RMK AO1
 
KHWY - Warrenton, Virginia, USA
Distance from station: SW 31mi, 50km
Updated: Thu, 19-Oct-2017 8:35am EDT
Clear
Clear
 Wind from calm
Wind: Calm
Temperature: 41°F , 5°C
Dew Point: 37°F , 3°C
Humidity: 87%
Barometer: 30.28 inHg , 1025.4 hPa
Clouds: Clear
Visibility: 10 miles , 16 km
2017/10/19 12:35 KHWY 191235Z AUTO 00000KT 10SM CLR 05/03 A3028 RMK AO2 T00500034
KRMN - Stafford Regnl, Virginia, USA
Distance from station: SSW 33mi, 54km
Updated: Thu, 19-Oct-2017 8:35am EDT
Clear
Clear
 Wind from calm
Wind: Calm
Temperature: 41°F , 5°C
Dew Point: 41°F , 5°C
Humidity: 100%
Barometer: 30.33 inHg , 1027.1 hPa
Clouds: Clear
Visibility: 10 miles , 16 km
2017/10/19 12:35 KRMN 191235Z AUTO 00000KT 10SM CLR 05/05 A3033 RMK AO2 T00510051
 
KBWI - Balto/Wash Intl, Maryland, USA
Distance from station: NE 38mi, 60km
Updated: Thu, 19-Oct-2017 7:54am EDT
Partly cloudy
Partly cloudy
 Wind from calm
Wind: Calm
Temperature: 45°F , 7°C
Dew Point: 45°F , 7°C
Humidity: 100%
Barometer: 30.27 inHg , 1025.1 hPa
Clouds: Partly cloudy
Visibility: 10 miles , 16 km
Cloud details: Few Clouds 14000 ft
Partly cloudy 25000 ft
2017/10/19 11:54 KBWI 191154Z 00000KT 10SM FEW140 SCT250 07/07 A3027 RMK AO2 SLP249 T00670067 10083 20044 50000 $
KFDK - Frederick, Maryland, USA
Distance from station: N 39mi, 63km
Updated: Thu, 19-Oct-2017 7:47am EDT
Clear
Clear
 Wind from calm
Wind: Calm
Temperature: 41°F , 5°C
Dew Point: 41°F , 5°C
Humidity: 100%
Barometer: 30.29 inHg , 1025.7 hPa
Clouds: Clear
Visibility: 10 miles , 16 km
2017/10/19 11:47 KFDK 191147Z 00000KT 10SM SKC 05/05 A3029
 
KCJR - Culpeper, Virginia, USA
Distance from station: SW 40mi, 64km
Updated: Thu, 19-Oct-2017 8:35am EDT
Clear
Clear
 Wind from calm
Wind: Calm
Temperature: 41°F , 5°C
Dew Point: 39°F , 4°C
Humidity: 93%
Barometer: 30.29 inHg , 1025.7 hPa
Clouds: Clear
Visibility: 10 miles , 16 km
2017/10/19 12:35 KCJR 191235Z AUTO 00000KT 10SM CLR 05/04 A3029 RMK AO2 T00490041
KEZF - Fredericksb/Shan, Virginia, USA
Distance from station: SSW 42mi, 68km
Updated: Thu, 19-Oct-2017 8:35am EDT
Clear
Clear
 Wind from calm
Wind: Calm
Temperature: 45°F , 7°C
Dew Point: 45°F , 7°C
Humidity: 100%
Barometer: 30.28 inHg , 1025.4 hPa
Clouds: Clear
Visibility: 10 miles , 16 km
2017/10/19 12:35 KEZF 191235Z AUTO 00000KT 10SM CLR 07/07 A3028 RMK AO2 T00740074
 
KNAK - Annapolis/Naval, Maryland, USA
Distance from station: ENE 43mi, 69km
Updated: Thu, 19-Oct-2017 7:54am EDT
Clear
Clear
 Wind from calm
Wind: Calm
Temperature: 50°F , 10°C
Dew Point: 50°F , 10°C
Humidity: 100%
Barometer: 30.27 inHg , 1025.1 hPa
Clouds: Clear
Visibility: 10 miles , 16 km
2017/10/19 11:54 KNAK 191154Z AUTO 00000KT 10SM CLR 10/10 A3027 RMK AO2 SLP252 T01000100 10117 20100 50001
KDMH - Baltimore/Dwntwn, Maryland, USA
Distance from station: NE 45mi, 73km
Updated: Thu, 19-Oct-2017 7:54am EDT

 
Temperature: 54°F , 12°C
Dew Point: 46°F , 8°C
Humidity: 77%
Barometer: 30.27 inHg , 1025.1 hPa
2017/10/19 11:54 KDMH 191154Z AUTO 12/08 A3027 RMK AO1 SLP250 T01170083 10128 20106 58001